메인 페이지
METAR-TAF:

METAR-TAF

공항 :

아타튀르크 국제공항

이스탄불 이스탄불, 터키

위도: 40-58N, 경도: 028-49E, 고도: 48m

현재 날씨관측

예보는 29분 전, 01:50시(UTC)에 발표되었습니다.
북북동6kt
온도 23°C
습도 57%
기압 1012 hPa
시정 10km 이상
고도 4000ft 상공 구름 조금

METAR: LTBA 210150Z 03006KT 9999 FEW040 23/14 Q1012 NOSIG RMK RWY17L 02006KT RWY05 02007KT RWY23 04006KT

시각: 05:19 (02:19 UTC)

예보

예보는 3 시간 39분 전, 22:40시(UTC)에 발표되었습니다.
예보 대상 시간: 21일 00시부터 22일 06시까지 (UTC)
북동9kt
시정 10km 이상
고도 4000ft 상공 구름 조금
전환 중
21일 06시부터 21일 09시까지 (UTC)
북동15kt, 순간 최대 풍속 25kt
전환 중
21일 16시부터 21일 19시까지 (UTC)
북동9kt

TAF: LTBA 202240Z 2100/2206 04009KT 9999 FEW040 BECMG 2106/2109 04015G25KT BECMG 2116/2119 04009KT

4,000개 이상의 공항 관측 자료 및 예보 (METAR 및 TAF 보고).

지도상에서 검색 가능한 기상관측소가 노란 점과 빨간 점으로 표시되어 있습니다.

기상관측소 명을 보려면 표시 위로 마우스를 이동하세요.

날씨 관측과 예보를 보려면 클릭하세요.

지도 변경 : 확대하려면 엑스 표시가 있는 녹색 버튼, 축소하려면 빼기 표시가 있는 녹색 버튼, 다음 페이지의 지도를 보려면 녹색 화살표를 클릭하세요.


METAR-TAF: